sensor_id;sensor_type;location;lat;lon;timestamp;P1;durP1;ratioP1;P2;durP2;ratioP2
72728;SDS011;60843;52.062;4.508;2022-11-30T00:00:49;17.33;;;6.90;;
72728;SDS011;60843;52.062;4.508;2022-11-30T00:03:14;15.93;;;7.45;;
72728;SDS011;60843;52.062;4.508;2022-11-30T00:05:40;15.80;;;7.37;;
72728;SDS011;60843;52.062;4.508;2022-11-30T00:08:05;16.47;;;7.87;;
72728;SDS011;60843;52.062;4.508;2022-11-30T00:10:30;14.30;;;6.70;;
72728;SDS011;60843;52.062;4.508;2022-11-30T00:12:55;18.53;;;7.87;;
72728;SDS011;60843;52.062;4.508;2022-11-30T00:15:21;21.60;;;8.03;;
72728;SDS011;60843;52.062;4.508;2022-11-30T00:17:46;16.87;;;7.70;;
72728;SDS011;60843;52.062;4.508;2022-11-30T00:20:13;17.52;;;7.75;;
72728;SDS011;60843;52.062;4.508;2022-11-30T00:22:39;22.48;;;8.63;;
72728;SDS011;60843;52.062;4.508;2022-11-30T00:25:04;22.77;;;8.80;;
72728;SDS011;60843;52.062;4.508;2022-11-30T00:27:33;22.13;;;7.78;;
72728;SDS011;60843;52.062;4.508;2022-11-30T00:29:59;15.80;;;7.30;;
72728;SDS011;60843;52.062;4.508;2022-11-30T00:32:25;14.95;;;7.38;;
72728;SDS011;60843;52.062;4.508;2022-11-30T00:34:51;21.08;;;7.88;;
72728;SDS011;60843;52.062;4.508;2022-11-30T00:37:16;14.45;;;7.15;;
72728;SDS011;60843;52.062;4.508;2022-11-30T00:39:41;14.80;;;7.90;;
72728;SDS011;60843;52.062;4.508;2022-11-30T00:42:07;14.13;;;8.00;;
72728;SDS011;60843;52.062;4.508;2022-11-30T00:44:32;15.77;;;8.03;;
72728;SDS011;60843;52.062;4.508;2022-11-30T00:46:57;17.00;;;7.73;;
72728;SDS011;60843;52.062;4.508;2022-11-30T00:49:23;16.52;;;7.82;;
72728;SDS011;60843;52.062;4.508;2022-11-30T00:51:48;14.50;;;7.63;;
72728;SDS011;60843;52.062;4.508;2022-11-30T00:54:14;16.10;;;7.37;;
72728;SDS011;60843;52.062;4.508;2022-11-30T00:56:39;17.63;;;7.72;;
72728;SDS011;60843;52.062;4.508;2022-11-30T00:59:04;15.55;;;7.40;;
72728;SDS011;60843;52.062;4.508;2022-11-30T01:01:30;17.13;;;6.80;;
72728;SDS011;60843;52.062;4.508;2022-11-30T01:03:56;14.38;;;7.13;;
72728;SDS011;60843;52.062;4.508;2022-11-30T01:06:21;13.85;;;6.32;;
72728;SDS011;60843;52.062;4.508;2022-11-30T01:08:47;18.08;;;7.38;;
72728;SDS011;60843;52.062;4.508;2022-11-30T01:11:16;12.60;;;6.55;;
72728;SDS011;60843;52.062;4.508;2022-11-30T01:13:44;13.30;;;7.80;;
72728;SDS011;60843;52.062;4.508;2022-11-30T01:16:12;15.45;;;6.60;;
72728;SDS011;60843;52.062;4.508;2022-11-30T01:18:39;13.02;;;7.28;;
72728;SDS011;60843;52.062;4.508;2022-11-30T01:21:06;17.45;;;6.97;;
72728;SDS011;60843;52.062;4.508;2022-11-30T01:23:35;13.55;;;6.50;;
72728;SDS011;60843;52.062;4.508;2022-11-30T01:26:00;13.87;;;6.67;;
72728;SDS011;60843;52.062;4.508;2022-11-30T01:28:26;15.23;;;6.20;;
72728;SDS011;60843;52.062;4.508;2022-11-30T01:30:58;15.43;;;6.80;;
72728;SDS011;60843;52.062;4.508;2022-11-30T01:33:24;14.02;;;6.15;;
72728;SDS011;60843;52.062;4.508;2022-11-30T01:36:03;14.73;;;6.43;;
72728;SDS011;60843;52.062;4.508;2022-11-30T01:38:41;14.88;;;6.53;;
72728;SDS011;60843;52.062;4.508;2022-11-30T01:41:08;12.20;;;5.88;;
72728;SDS011;60843;52.062;4.508;2022-11-30T01:43:45;12.70;;;6.63;;
72728;SDS011;60843;52.062;4.508;2022-11-30T01:48:43;12.27;;;6.03;;
72728;SDS011;60843;52.062;4.508;2022-11-30T01:51:09;12.65;;;6.32;;
72728;SDS011;60843;52.062;4.508;2022-11-30T01:53:34;11.43;;;6.40;;
72728;SDS011;60843;52.062;4.508;2022-11-30T01:55:59;12.73;;;5.90;;
72728;SDS011;60843;52.062;4.508;2022-11-30T01:58:26;11.32;;;5.55;;
72728;SDS011;60843;52.062;4.508;2022-11-30T02:00:52;12.95;;;6.40;;
72728;SDS011;60843;52.062;4.508;2022-11-30T02:03:29;19.50;;;6.80;;
72728;SDS011;60843;52.062;4.508;2022-11-30T02:05:57;12.75;;;6.13;;
72728;SDS011;60843;52.062;4.508;2022-11-30T02:08:23;14.73;;;5.88;;
72728;SDS011;60843;52.062;4.508;2022-11-30T02:10:51;10.93;;;6.22;;
72728;SDS011;60843;52.062;4.508;2022-11-30T02:27:22;14.98;;;6.55;;
72728;SDS011;60843;52.062;4.508;2022-11-30T02:30:15;15.52;;;6.38;;
72728;SDS011;60843;52.062;4.508;2022-11-30T02:32:47;14.00;;;6.50;;
72728;SDS011;60843;52.062;4.508;2022-11-30T02:35:16;14.25;;;6.47;;
72728;SDS011;60843;52.062;4.508;2022-11-30T02:37:44;15.73;;;6.32;;
72728;SDS011;60843;52.062;4.508;2022-11-30T02:40:12;19.35;;;7.00;;
72728;SDS011;60843;52.062;4.508;2022-11-30T02:42:39;19.70;;;6.38;;
72728;SDS011;60843;52.062;4.508;2022-11-30T02:45:04;22.50;;;6.80;;
72728;SDS011;60843;52.062;4.508;2022-11-30T02:50:03;13.60;;;5.75;;
72728;SDS011;60843;52.062;4.508;2022-11-30T02:52:34;13.15;;;6.78;;
72728;SDS011;60843;52.062;4.508;2022-11-30T02:55:00;12.85;;;7.13;;
72728;SDS011;60843;52.062;4.508;2022-11-30T02:57:33;13.63;;;6.13;;
72728;SDS011;60843;52.062;4.508;2022-11-30T02:59:59;13.23;;;6.00;;
72728;SDS011;60843;52.062;4.508;2022-11-30T03:02:26;15.55;;;6.20;;
72728;SDS011;60843;52.062;4.508;2022-11-30T03:04:51;13.27;;;5.37;;
72728;SDS011;60843;52.062;4.508;2022-11-30T03:07:16;15.00;;;6.77;;
72728;SDS011;60843;52.062;4.508;2022-11-30T03:09:42;9.75;;;5.80;;
72728;SDS011;60843;52.062;4.508;2022-11-30T03:12:07;15.63;;;6.60;;
72728;SDS011;60843;52.062;4.508;2022-11-30T03:14:32;15.25;;;6.43;;
72728;SDS011;60843;52.062;4.508;2022-11-30T03:16:58;14.97;;;6.20;;
72728;SDS011;60843;52.062;4.508;2022-11-30T03:19:23;13.97;;;6.27;;
72728;SDS011;60843;52.062;4.508;2022-11-30T03:21:49;16.00;;;6.43;;
72728;SDS011;60843;52.062;4.508;2022-11-30T03:24:14;16.47;;;6.27;;
72728;SDS011;60843;52.062;4.508;2022-11-30T03:26:39;14.83;;;5.93;;
72728;SDS011;60843;52.062;4.508;2022-11-30T03:29:05;11.83;;;6.63;;
72728;SDS011;60843;52.062;4.508;2022-11-30T03:31:30;12.00;;;6.13;;
72728;SDS011;60843;52.062;4.508;2022-11-30T03:33:55;15.27;;;6.40;;
72728;SDS011;60843;52.062;4.508;2022-11-30T03:36:21;17.42;;;6.28;;
72728;SDS011;60843;52.062;4.508;2022-11-30T03:38:46;14.53;;;6.93;;
72728;SDS011;60843;52.062;4.508;2022-11-30T03:41:13;15.67;;;7.50;;
72728;SDS011;60843;52.062;4.508;2022-11-30T03:43:40;12.55;;;6.65;;
72728;SDS011;60843;52.062;4.508;2022-11-30T03:46:06;12.60;;;5.40;;
72728;SDS011;60843;52.062;4.508;2022-11-30T03:48:31;12.87;;;5.80;;
72728;SDS011;60843;52.062;4.508;2022-11-30T03:50:57;15.48;;;6.32;;
72728;SDS011;60843;52.062;4.508;2022-11-30T03:53:23;11.55;;;6.03;;
72728;SDS011;60843;52.062;4.508;2022-11-30T03:55:52;12.52;;;6.38;;
72728;SDS011;60843;52.062;4.508;2022-11-30T03:58:19;11.88;;;5.55;;
72728;SDS011;60843;52.062;4.508;2022-11-30T04:00:45;13.48;;;6.15;;
72728;SDS011;60843;52.062;4.508;2022-11-30T04:03:10;12.43;;;6.10;;
72728;SDS011;60843;52.062;4.508;2022-11-30T04:05:35;13.17;;;6.33;;
72728;SDS011;60843;52.062;4.508;2022-11-30T04:08:00;12.77;;;6.93;;
72728;SDS011;60843;52.062;4.508;2022-11-30T04:10:26;14.90;;;6.77;;
72728;SDS011;60843;52.062;4.508;2022-11-30T04:12:51;13.53;;;6.27;;
72728;SDS011;60843;52.062;4.508;2022-11-30T04:15:17;11.52;;;6.28;;
72728;SDS011;60843;52.062;4.508;2022-11-30T04:17:42;16.83;;;6.70;;
72728;SDS011;60843;52.062;4.508;2022-11-30T04:20:07;15.83;;;7.13;;
72728;SDS011;60843;52.062;4.508;2022-11-30T04:22:33;18.95;;;7.18;;
72728;SDS011;60843;52.062;4.508;2022-11-30T04:24:58;15.37;;;7.03;;
72728;SDS011;60843;52.062;4.508;2022-11-30T04:27:24;16.58;;;7.88;;
72728;SDS011;60843;52.062;4.508;2022-11-30T04:29:49;17.63;;;7.82;;
72728;SDS011;60843;52.062;4.508;2022-11-30T04:32:15;17.05;;;7.32;;
72728;SDS011;60843;52.062;4.508;2022-11-30T04:34:40;13.75;;;7.22;;
72728;SDS011;60843;52.062;4.508;2022-11-30T04:37:05;14.47;;;6.97;;
72728;SDS011;60843;52.062;4.508;2022-11-30T04:39:32;15.88;;;6.28;;
72728;SDS011;60843;52.062;4.508;2022-11-30T04:41:58;16.25;;;7.60;;
72728;SDS011;60843;52.062;4.508;2022-11-30T04:44:23;14.97;;;6.40;;
72728;SDS011;60843;52.062;4.508;2022-11-30T04:46:48;17.30;;;8.97;;
72728;SDS011;60843;52.062;4.508;2022-11-30T04:49:14;18.43;;;7.57;;
72728;SDS011;60843;52.062;4.508;2022-11-30T04:51:39;15.90;;;7.40;;
72728;SDS011;60843;52.062;4.508;2022-11-30T04:54:04;16.27;;;6.97;;
72728;SDS011;60843;52.062;4.508;2022-11-30T04:56:30;17.20;;;7.53;;
72728;SDS011;60843;52.062;4.508;2022-11-30T04:58:55;23.10;;;7.53;;
72728;SDS011;60843;52.062;4.508;2022-11-30T05:01:20;12.77;;;7.13;;
72728;SDS011;60843;52.062;4.508;2022-11-30T05:03:46;24.87;;;8.20;;
72728;SDS011;60843;52.062;4.508;2022-11-30T05:06:11;17.87;;;8.13;;
72728;SDS011;60843;52.062;4.508;2022-11-30T05:08:36;18.53;;;8.27;;
72728;SDS011;60843;52.062;4.508;2022-11-30T05:11:02;15.63;;;8.17;;
72728;SDS011;60843;52.062;4.508;2022-11-30T05:13:27;15.13;;;7.40;;
72728;SDS011;60843;52.062;4.508;2022-11-30T05:15:52;18.23;;;8.20;;
72728;SDS011;60843;52.062;4.508;2022-11-30T05:18:18;16.75;;;8.38;;
72728;SDS011;60843;52.062;4.508;2022-11-30T05:20:47;20.15;;;8.00;;
72728;SDS011;60843;52.062;4.508;2022-11-30T05:23:14;17.33;;;8.20;;
72728;SDS011;60843;52.062;4.508;2022-11-30T05:25:40;17.30;;;8.63;;
72728;SDS011;60843;52.062;4.508;2022-11-30T05:28:06;17.10;;;9.25;;
72728;SDS011;60843;52.062;4.508;2022-11-30T05:30:31;17.30;;;8.37;;
72728;SDS011;60843;52.062;4.508;2022-11-30T05:32:56;16.93;;;8.77;;
72728;SDS011;60843;52.062;4.508;2022-11-30T05:35:22;14.70;;;7.67;;
72728;SDS011;60843;52.062;4.508;2022-11-30T05:37:47;17.13;;;8.77;;
72728;SDS011;60843;52.062;4.508;2022-11-30T05:40:12;14.68;;;7.88;;
72728;SDS011;60843;52.062;4.508;2022-11-30T05:42:38;19.43;;;8.60;;
72728;SDS011;60843;52.062;4.508;2022-11-30T05:45:03;21.65;;;9.05;;
72728;SDS011;60843;52.062;4.508;2022-11-30T05:47:29;20.13;;;10.23;;
72728;SDS011;60843;52.062;4.508;2022-11-30T05:49:54;25.17;;;10.20;;
72728;SDS011;60843;52.062;4.508;2022-11-30T05:52:20;19.53;;;9.90;;
72728;SDS011;60843;52.062;4.508;2022-11-30T05:54:45;23.43;;;9.90;;
72728;SDS011;60843;52.062;4.508;2022-11-30T05:57:10;21.10;;;9.87;;
72728;SDS011;60843;52.062;4.508;2022-11-30T05:59:36;21.47;;;10.07;;
72728;SDS011;60843;52.062;4.508;2022-11-30T06:02:01;18.60;;;9.13;;
72728;SDS011;60843;52.062;4.508;2022-11-30T06:04:26;16.37;;;8.70;;
72728;SDS011;60843;52.062;4.508;2022-11-30T06:06:52;19.27;;;9.70;;
72728;SDS011;60843;52.062;4.508;2022-11-30T06:09:19;18.42;;;9.68;;
72728;SDS011;60843;52.062;4.508;2022-11-30T06:11:45;23.95;;;9.68;;
72728;SDS011;60843;52.062;4.508;2022-11-30T06:14:11;24.00;;;10.80;;
72728;SDS011;60843;52.062;4.508;2022-11-30T06:16:37;24.97;;;10.93;;
72728;SDS011;60843;52.062;4.508;2022-11-30T06:19:03;22.35;;;10.98;;
72728;SDS011;60843;52.062;4.508;2022-11-30T06:21:28;23.70;;;10.90;;
72728;SDS011;60843;52.062;4.508;2022-11-30T06:23:54;21.73;;;10.10;;
72728;SDS011;60843;52.062;4.508;2022-11-30T06:26:19;23.83;;;10.50;;
72728;SDS011;60843;52.062;4.508;2022-11-30T06:28:44;20.90;;;10.60;;
72728;SDS011;60843;52.062;4.508;2022-11-30T06:31:10;21.23;;;10.55;;
72728;SDS011;60843;52.062;4.508;2022-11-30T06:33:35;21.27;;;10.90;;
72728;SDS011;60843;52.062;4.508;2022-11-30T06:36:01;23.75;;;9.90;;
72728;SDS011;60843;52.062;4.508;2022-11-30T06:38:27;23.90;;;11.38;;
72728;SDS011;60843;52.062;4.508;2022-11-30T06:40:53;23.58;;;10.80;;
72728;SDS011;60843;52.062;4.508;2022-11-30T06:43:18;25.17;;;10.65;;
72728;SDS011;60843;52.062;4.508;2022-11-30T06:45:44;22.75;;;11.00;;
72728;SDS011;60843;52.062;4.508;2022-11-30T06:48:10;24.38;;;11.75;;
72728;SDS011;60843;52.062;4.508;2022-11-30T06:50:36;20.65;;;10.18;;
72728;SDS011;60843;52.062;4.508;2022-11-30T06:53:02;22.73;;;10.57;;
72728;SDS011;60843;52.062;4.508;2022-11-30T06:55:27;21.33;;;10.52;;
72728;SDS011;60843;52.062;4.508;2022-11-30T06:58:02;21.40;;;10.55;;
72728;SDS011;60843;52.062;4.508;2022-11-30T07:00:36;22.00;;;10.45;;
72728;SDS011;60843;52.062;4.508;2022-11-30T07:03:02;22.02;;;11.27;;
72728;SDS011;60843;52.062;4.508;2022-11-30T07:05:28;20.70;;;10.73;;
72728;SDS011;60843;52.062;4.508;2022-11-30T07:07:54;21.27;;;10.90;;
72728;SDS011;60843;52.062;4.508;2022-11-30T07:10:20;26.67;;;10.80;;
72728;SDS011;60843;52.062;4.508;2022-11-30T07:12:46;21.80;;;11.05;;
72728;SDS011;60843;52.062;4.508;2022-11-30T07:15:12;25.40;;;11.68;;
72728;SDS011;60843;52.062;4.508;2022-11-30T07:17:37;28.60;;;11.80;;
72728;SDS011;60843;52.062;4.508;2022-11-30T07:20:03;21.03;;;10.33;;
72728;SDS011;60843;52.062;4.508;2022-11-30T07:22:29;25.23;;;11.13;;
72728;SDS011;60843;52.062;4.508;2022-11-30T07:24:54;24.40;;;10.67;;
72728;SDS011;60843;52.062;4.508;2022-11-30T07:27:38;23.58;;;10.77;;
72728;SDS011;60843;52.062;4.508;2022-11-30T07:30:03;22.73;;;9.87;;
72728;SDS011;60843;52.062;4.508;2022-11-30T07:32:29;26.80;;;10.93;;
72728;SDS011;60843;52.062;4.508;2022-11-30T07:34:54;26.87;;;12.57;;
72728;SDS011;60843;52.062;4.508;2022-11-30T07:37:20;29.17;;;11.20;;
72728;SDS011;60843;52.062;4.508;2022-11-30T07:39:45;24.20;;;11.07;;
72728;SDS011;60843;52.062;4.508;2022-11-30T07:42:10;22.20;;;11.53;;
72728;SDS011;60843;52.062;4.508;2022-11-30T07:44:36;24.53;;;11.60;;
72728;SDS011;60843;52.062;4.508;2022-11-30T07:47:01;22.27;;;10.33;;
72728;SDS011;60843;52.062;4.508;2022-11-30T07:49:26;22.33;;;12.00;;
72728;SDS011;60843;52.062;4.508;2022-11-30T07:51:52;27.67;;;11.30;;
72728;SDS011;60843;52.062;4.508;2022-11-30T07:54:17;23.87;;;10.90;;
72728;SDS011;60843;52.062;4.508;2022-11-30T07:56:42;25.17;;;11.45;;
72728;SDS011;60843;52.062;4.508;2022-11-30T07:59:08;27.43;;;12.13;;
72728;SDS011;60843;52.062;4.508;2022-11-30T08:01:33;25.60;;;11.88;;
72728;SDS011;60843;52.062;4.508;2022-11-30T08:03:59;28.15;;;13.05;;
72728;SDS011;60843;52.062;4.508;2022-11-30T08:06:25;28.23;;;13.35;;
72728;SDS011;60843;52.062;4.508;2022-11-30T08:08:53;32.28;;;12.70;;
72728;SDS011;60843;52.062;4.508;2022-11-30T08:11:25;30.15;;;12.60;;
72728;SDS011;60843;52.062;4.508;2022-11-30T08:13:53;35.42;;;13.88;;
72728;SDS011;60843;52.062;4.508;2022-11-30T08:16:19;33.20;;;13.82;;
72728;SDS011;60843;52.062;4.508;2022-11-30T08:18:46;31.77;;;13.38;;
72728;SDS011;60843;52.062;4.508;2022-11-30T08:21:12;32.58;;;13.40;;
72728;SDS011;60843;52.062;4.508;2022-11-30T08:23:56;35.13;;;14.15;;
72728;SDS011;60843;52.062;4.508;2022-11-30T08:26:23;35.55;;;15.05;;
72728;SDS011;60843;52.062;4.508;2022-11-30T08:28:53;36.15;;;15.20;;
72728;SDS011;60843;52.062;4.508;2022-11-30T08:31:23;34.80;;;13.38;;
72728;SDS011;60843;52.062;4.508;2022-11-30T08:33:54;35.83;;;14.75;;
72728;SDS011;60843;52.062;4.508;2022-11-30T08:36:22;35.67;;;15.35;;
72728;SDS011;60843;52.062;4.508;2022-11-30T08:38:48;37.20;;;15.23;;
72728;SDS011;60843;52.062;4.508;2022-11-30T08:41:14;36.53;;;15.25;;
72728;SDS011;60843;52.062;4.508;2022-11-30T08:43:41;32.42;;;15.10;;
72728;SDS011;60843;52.062;4.508;2022-11-30T08:46:08;35.42;;;16.23;;
72728;SDS011;60843;52.062;4.508;2022-11-30T08:48:38;36.33;;;16.38;;
72728;SDS011;60843;52.062;4.508;2022-11-30T08:51:05;34.05;;;15.77;;
72728;SDS011;60843;52.062;4.508;2022-11-30T08:53:31;34.85;;;16.08;;
72728;SDS011;60843;52.062;4.508;2022-11-30T08:55:58;35.15;;;16.05;;
72728;SDS011;60843;52.062;4.508;2022-11-30T08:58:25;34.42;;;15.43;;
72728;SDS011;60843;52.062;4.508;2022-11-30T09:00:53;35.35;;;15.40;;
72728;SDS011;60843;52.062;4.508;2022-11-30T09:03:18;31.30;;;15.02;;
72728;SDS011;60843;52.062;4.508;2022-11-30T09:05:44;36.70;;;14.75;;
72728;SDS011;60843;52.062;4.508;2022-11-30T09:08:09;36.40;;;15.03;;
72728;SDS011;60843;52.062;4.508;2022-11-30T09:10:35;30.52;;;13.85;;
72728;SDS011;60843;52.062;4.508;2022-11-30T09:13:00;35.15;;;14.30;;
72728;SDS011;60843;52.062;4.508;2022-11-30T09:15:25;35.37;;;14.07;;
72728;SDS011;60843;52.062;4.508;2022-11-30T09:17:51;34.80;;;13.83;;
72728;SDS011;60843;52.062;4.508;2022-11-30T09:20:16;34.80;;;14.40;;
72728;SDS011;60843;52.062;4.508;2022-11-30T09:22:41;34.67;;;14.93;;
72728;SDS011;60843;52.062;4.508;2022-11-30T09:25:08;36.53;;;14.73;;
72728;SDS011;60843;52.062;4.508;2022-11-30T09:27:33;34.22;;;15.23;;
72728;SDS011;60843;52.062;4.508;2022-11-30T09:29:59;37.27;;;14.97;;
72728;SDS011;60843;52.062;4.508;2022-11-30T09:32:24;38.25;;;14.52;;
72728;SDS011;60843;52.062;4.508;2022-11-30T09:34:49;32.00;;;14.97;;
72728;SDS011;60843;52.062;4.508;2022-11-30T09:37:15;33.90;;;15.47;;
72728;SDS011;60843;52.062;4.508;2022-11-30T09:39:40;38.37;;;14.83;;
72728;SDS011;60843;52.062;4.508;2022-11-30T09:47:39;34.75;;;14.20;;
72728;SDS011;60843;52.062;4.508;2022-11-30T09:50:13;34.60;;;15.05;;
72728;SDS011;60843;52.062;4.508;2022-11-30T09:52:45;40.10;;;16.80;;
72728;SDS011;60843;52.062;4.508;2022-11-30T09:55:15;38.40;;;15.88;;
72728;SDS011;60843;52.062;4.508;2022-11-30T09:57:50;38.45;;;14.95;;
72728;SDS011;60843;52.062;4.508;2022-11-30T10:00:21;35.92;;;15.27;;
72728;SDS011;60843;52.062;4.508;2022-11-30T10:02:48;36.97;;;15.15;;
72728;SDS011;60843;52.062;4.508;2022-11-30T10:05:15;36.67;;;15.75;;
72728;SDS011;60843;52.062;4.508;2022-11-30T10:10:35;34.05;;;14.55;;
72728;SDS011;60843;52.062;4.508;2022-11-30T10:16:13;32.90;;;13.27;;
72728;SDS011;60843;52.062;4.508;2022-11-30T10:26:55;26.67;;;12.40;;
72728;SDS011;60843;52.062;4.508;2022-11-30T10:31:54;30.92;;;13.60;;
72728;SDS011;60843;52.062;4.508;2022-11-30T10:34:23;26.75;;;13.15;;
72728;SDS011;60843;52.062;4.508;2022-11-30T10:36:53;30.40;;;13.10;;
72728;SDS011;60843;52.062;4.508;2022-11-30T10:39:25;28.42;;;12.00;;
72728;SDS011;60843;52.062;4.508;2022-11-30T10:41:55;33.28;;;13.38;;
72728;SDS011;60843;52.062;4.508;2022-11-30T10:44:26;32.30;;;13.50;;
72728;SDS011;60843;52.062;4.508;2022-11-30T10:46:59;27.98;;;12.15;;
72728;SDS011;60843;52.062;4.508;2022-11-30T10:49:27;28.80;;;14.38;;
72728;SDS011;60843;52.062;4.508;2022-11-30T10:51:54;30.80;;;13.10;;
72728;SDS011;60843;52.062;4.508;2022-11-30T10:54:23;35.70;;;13.30;;
72728;SDS011;60843;52.062;4.508;2022-11-30T10:56:48;28.60;;;13.75;;
72728;SDS011;60843;52.062;4.508;2022-11-30T11:01:41;28.10;;;12.50;;
72728;SDS011;60843;52.062;4.508;2022-11-30T11:09:22;28.27;;;13.38;;
72728;SDS011;60843;52.062;4.508;2022-11-30T11:11:55;27.90;;;13.38;;
72728;SDS011;60843;52.062;4.508;2022-11-30T11:14:42;26.48;;;12.02;;
72728;SDS011;60843;52.062;4.508;2022-11-30T11:19:42;30.88;;;14.02;;
72728;SDS011;60843;52.062;4.508;2022-11-30T11:22:15;28.15;;;12.63;;
72728;SDS011;60843;52.062;4.508;2022-11-30T11:24:42;29.92;;;13.18;;
72728;SDS011;60843;52.062;4.508;2022-11-30T11:27:17;30.08;;;12.93;;
72728;SDS011;60843;52.062;4.508;2022-11-30T11:32:34;30.50;;;12.95;;
72728;SDS011;60843;52.062;4.508;2022-11-30T11:35:00;27.08;;;13.02;;
72728;SDS011;60843;52.062;4.508;2022-11-30T11:37:26;32.57;;;14.17;;
72728;SDS011;60843;52.062;4.508;2022-11-30T11:39:56;28.50;;;13.05;;
72728;SDS011;60843;52.062;4.508;2022-11-30T11:42:25;27.30;;;12.32;;
72728;SDS011;60843;52.062;4.508;2022-11-30T11:44:53;26.50;;;12.55;;
72728;SDS011;60843;52.062;4.508;2022-11-30T11:47:24;24.30;;;12.15;;
72728;SDS011;60843;52.062;4.508;2022-11-30T11:49:51;25.33;;;11.75;;
72728;SDS011;60843;52.062;4.508;2022-11-30T11:52:29;24.48;;;10.43;;
72728;SDS011;60843;52.062;4.508;2022-11-30T11:55:36;19.67;;;9.83;;
72728;SDS011;60843;52.062;4.508;2022-11-30T11:57:48;22.98;;;10.20;;
72728;SDS011;60843;52.062;4.508;2022-11-30T12:00:18;18.08;;;9.07;;
72728;SDS011;60843;52.062;4.508;2022-11-30T12:08:21;19.30;;;9.02;;
72728;SDS011;60843;52.062;4.508;2022-11-30T12:10:54;19.88;;;9.32;;
72728;SDS011;60843;52.062;4.508;2022-11-30T12:13:26;19.88;;;9.10;;
72728;SDS011;60843;52.062;4.508;2022-11-30T12:16:11;20.50;;;9.43;;
72728;SDS011;60843;52.062;4.508;2022-11-30T12:24:18;18.38;;;8.95;;
72728;SDS011;60843;52.062;4.508;2022-11-30T12:27:18;22.02;;;9.45;;
72728;SDS011;60843;52.062;4.508;2022-11-30T12:29:58;18.25;;;9.55;;
72728;SDS011;60843;52.062;4.508;2022-11-30T12:40:32;26.77;;;13.02;;
72728;SDS011;60843;52.062;4.508;2022-11-30T12:45:47;34.55;;;17.35;;
72728;SDS011;60843;52.062;4.508;2022-11-30T12:51:01;29.60;;;16.48;;
72728;SDS011;60843;52.062;4.508;2022-11-30T12:56:20;25.33;;;13.63;;
72728;SDS011;60843;52.062;4.508;2022-11-30T12:59:03;31.35;;;15.00;;
72728;SDS011;60843;52.062;4.508;2022-11-30T13:01:41;28.95;;;13.73;;
72728;SDS011;60843;52.062;4.508;2022-11-30T13:04:19;29.38;;;14.50;;
72728;SDS011;60843;52.062;4.508;2022-11-30T13:06:59;25.00;;;12.40;;
72728;SDS011;60843;52.062;4.508;2022-11-30T13:09:47;22.98;;;12.38;;
72728;SDS011;60843;52.062;4.508;2022-11-30T13:12:18;26.15;;;13.45;;
72728;SDS011;60843;52.062;4.508;2022-11-30T13:14:48;29.98;;;15.27;;
72728;SDS011;60843;52.062;4.508;2022-11-30T13:17:17;23.88;;;11.73;;
72728;SDS011;60843;52.062;4.508;2022-11-30T13:24:59;25.13;;;10.90;;
72728;SDS011;60843;52.062;4.508;2022-11-30T13:27:29;23.67;;;11.25;;
72728;SDS011;60843;52.062;4.508;2022-11-30T13:32:42;19.70;;;10.32;;
72728;SDS011;60843;52.062;4.508;2022-11-30T13:37:59;24.63;;;9.35;;
72728;SDS011;60843;52.062;4.508;2022-11-30T13:40:28;26.25;;;11.00;;
72728;SDS011;60843;52.062;4.508;2022-11-30T13:42:54;19.98;;;9.80;;
72728;SDS011;60843;52.062;4.508;2022-11-30T13:45:54;21.02;;;9.40;;
72728;SDS011;60843;52.062;4.508;2022-11-30T13:48:32;22.42;;;10.15;;
72728;SDS011;60843;52.062;4.508;2022-11-30T13:51:01;24.60;;;10.65;;
72728;SDS011;60843;52.062;4.508;2022-11-30T13:53:28;25.17;;;12.65;;
72728;SDS011;60843;52.062;4.508;2022-11-30T13:58:30;23.02;;;10.02;;
72728;SDS011;60843;52.062;4.508;2022-11-30T14:00:59;28.05;;;12.65;;
72728;SDS011;60843;52.062;4.508;2022-11-30T14:03:44;22.92;;;10.88;;
72728;SDS011;60843;52.062;4.508;2022-11-30T14:09:15;29.42;;;12.45;;
72728;SDS011;60843;52.062;4.508;2022-11-30T14:14:56;29.98;;;12.40;;
72728;SDS011;60843;52.062;4.508;2022-11-30T14:17:23;28.13;;;13.48;;
72728;SDS011;60843;52.062;4.508;2022-11-30T14:20:13;31.95;;;13.90;;
72728;SDS011;60843;52.062;4.508;2022-11-30T14:22:41;28.20;;;12.73;;
72728;SDS011;60843;52.062;4.508;2022-11-30T14:25:11;27.92;;;12.68;;
72728;SDS011;60843;52.062;4.508;2022-11-30T14:27:37;29.90;;;13.50;;
72728;SDS011;60843;52.062;4.508;2022-11-30T14:30:03;30.00;;;14.60;;
72728;SDS011;60843;52.062;4.508;2022-11-30T14:35:18;34.15;;;13.45;;
72728;SDS011;60843;52.062;4.508;2022-11-30T14:37:45;28.52;;;12.90;;
72728;SDS011;60843;52.062;4.508;2022-11-30T14:40:17;27.45;;;13.15;;
72728;SDS011;60843;52.062;4.508;2022-11-30T14:42:55;23.20;;;11.88;;
72728;SDS011;60843;52.062;4.508;2022-11-30T14:45:23;26.83;;;13.27;;
72728;SDS011;60843;52.062;4.508;2022-11-30T14:47:51;30.98;;;13.55;;
72728;SDS011;60843;52.062;4.508;2022-11-30T14:50:22;27.70;;;12.77;;
72728;SDS011;60843;52.062;4.508;2022-11-30T14:55:30;28.67;;;13.57;;
72728;SDS011;60843;52.062;4.508;2022-11-30T15:00:44;29.55;;;11.85;;
72728;SDS011;60843;52.062;4.508;2022-11-30T15:03:17;27.20;;;13.38;;
72728;SDS011;60843;52.062;4.508;2022-11-30T15:05:51;29.52;;;12.68;;
72728;SDS011;60843;52.062;4.508;2022-11-30T15:08:18;27.95;;;11.88;;
72728;SDS011;60843;52.062;4.508;2022-11-30T15:10:43;29.60;;;13.07;;
72728;SDS011;60843;52.062;4.508;2022-11-30T15:13:12;30.17;;;12.95;;
72728;SDS011;60843;52.062;4.508;2022-11-30T15:15:48;27.38;;;13.57;;
72728;SDS011;60843;52.062;4.508;2022-11-30T15:18:18;29.45;;;13.23;;
72728;SDS011;60843;52.062;4.508;2022-11-30T15:25:52;30.20;;;12.50;;
72728;SDS011;60843;52.062;4.508;2022-11-30T15:28:26;29.17;;;13.82;;
72728;SDS011;60843;52.062;4.508;2022-11-30T15:30:56;32.63;;;13.95;;
72728;SDS011;60843;52.062;4.508;2022-11-30T15:33:23;31.17;;;14.52;;
72728;SDS011;60843;52.062;4.508;2022-11-30T15:35:54;34.55;;;14.48;;
72728;SDS011;60843;52.062;4.508;2022-11-30T15:38:21;30.20;;;13.70;;
72728;SDS011;60843;52.062;4.508;2022-11-30T15:40:49;30.75;;;13.90;;
72728;SDS011;60843;52.062;4.508;2022-11-30T15:43:18;30.98;;;14.65;;
72728;SDS011;60843;52.062;4.508;2022-11-30T15:45:56;30.92;;;14.73;;
72728;SDS011;60843;52.062;4.508;2022-11-30T15:48:32;29.50;;;13.77;;
72728;SDS011;60843;52.062;4.508;2022-11-30T15:50:59;31.67;;;14.88;;
72728;SDS011;60843;52.062;4.508;2022-11-30T15:53:29;31.02;;;13.32;;
72728;SDS011;60843;52.062;4.508;2022-11-30T15:56:00;34.95;;;14.57;;
72728;SDS011;60843;52.062;4.508;2022-11-30T15:58:35;37.85;;;16.48;;
72728;SDS011;60843;52.062;4.508;2022-11-30T16:06:19;34.17;;;15.23;;
72728;SDS011;60843;52.062;4.508;2022-11-30T16:08:46;31.23;;;15.25;;
72728;SDS011;60843;52.062;4.508;2022-11-30T16:11:12;33.42;;;14.63;;
72728;SDS011;60843;52.062;4.508;2022-11-30T16:13:38;31.17;;;13.98;;
72728;SDS011;60843;52.062;4.508;2022-11-30T16:16:09;33.20;;;14.73;;
72728;SDS011;60843;52.062;4.508;2022-11-30T16:18:35;32.85;;;15.02;;
72728;SDS011;60843;52.062;4.508;2022-11-30T16:21:00;29.53;;;14.97;;
72728;SDS011;60843;52.062;4.508;2022-11-30T16:23:26;39.42;;;15.95;;
72728;SDS011;60843;52.062;4.508;2022-11-30T16:25:52;34.33;;;15.25;;
72728;SDS011;60843;52.062;4.508;2022-11-30T16:28:18;29.73;;;14.35;;
72728;SDS011;60843;52.062;4.508;2022-11-30T16:30:44;36.05;;;14.77;;
72728;SDS011;60843;52.062;4.508;2022-11-30T16:33:13;30.17;;;13.52;;